METAR AND TAF INFORMATION
METAR FOR KOZR
ADDS - METARS form results

(0549 UTC 08 December 2022)
Data provider http://aviationweather.gov/metar/data/
 
METAR text: KOZR 080545Z AUTO 00000KT 1/2SM R06/1800V6000FT FG CLR 15/15 A3026 RMK AO2 VIS 1/2V2 SLPNO
Conditions at: KOZR (OZARK/CAIRNS AAF, AL, US) observed 0545 UTC 08 December 2022
Temperature: 15.0°C (59°F)
Dewpoint: 15.0°C (59°F) [RH = 100%]
Pressure (altimeter): 30.26 inches Hg (1024.8 mb)
Winds: calm
Visibility: 0.50 miles (0.80 km)
Ceiling: at least 12,000 feet AGL
Clouds: sky clear below 12,000 feet AGL
Weather: FG  (fog)

METAR text: KOZR 080540Z AUTO 00000KT 1 1/2SM BR CLR 16/15 A3026 RMK AO2 VIS 1 1/2V2 1/2 SLPNO
Conditions at: KOZR (OZARK/CAIRNS AAF, AL, US) observed 0540 UTC 08 December 2022
Temperature: 16.0°C (61°F)
Dewpoint: 15.0°C (59°F) [RH = 94%]
Pressure (altimeter): 30.26 inches Hg (1024.8 mb)
Winds: calm
Visibility: 1.50 miles (2.41 km)
Ceiling: at least 12,000 feet AGL
Clouds: sky clear below 12,000 feet AGL
Weather: BR  (mist)

METAR text: KOZR 080535Z AUTO 00000KT 2 1/4SM BR CLR 16/16 A3026 RMK AO2 VIS 1 3/4V2 1/2 SLPNO
Conditions at: KOZR (OZARK/CAIRNS AAF, AL, US) observed 0535 UTC 08 December 2022
Temperature: 16.0°C (61°F)
Dewpoint: 16.0°C (61°F) [RH = 100%]
Pressure (altimeter): 30.26 inches Hg (1024.8 mb)
Winds: calm
Visibility: 2.25 miles (3.62 km)
Ceiling: at least 12,000 feet AGL
Clouds: sky clear below 12,000 feet AGL
Weather: BR  (mist)

METAR text: KOZR 080520Z AUTO 00000KT 1 1/2SM BR CLR 16/15 A3026 RMK AO2 VIS 5/8V1 1/2 SLPNO
Conditions at: KOZR (OZARK/CAIRNS AAF, AL, US) observed 0520 UTC 08 December 2022
Temperature: 16.0°C (61°F)
Dewpoint: 15.0°C (59°F) [RH = 94%]
Pressure (altimeter): 30.26 inches Hg (1024.8 mb)
Winds: calm
Visibility: 1.50 miles (2.41 km)
Ceiling: at least 12,000 feet AGL
Clouds: sky clear below 12,000 feet AGL
Weather: BR  (mist)

METAR text: KOZR 080515Z AUTO 00000KT 5/8SM R06/3500VP6000FT BR CLR 16/15 A3026 RMK AO2 VIS 5/8V2 3/4 SLPNO
Conditions at: KOZR (OZARK/CAIRNS AAF, AL, US) observed 0515 UTC 08 December 2022
Temperature: 16.0°C (61°F)
Dewpoint: 15.0°C (59°F) [RH = 94%]
Pressure (altimeter): 30.26 inches Hg (1024.8 mb)
Winds: calm
Visibility: 0.63 miles (1.01 km)
Ceiling: at least 12,000 feet AGL
Clouds: sky clear below 12,000 feet AGL
Weather: BR  (mist)

METAR text: KOZR 080510Z AUTO 00000KT 7/8SM R06/3500VP6000FT BR CLR 16/15 A3027 RMK AO2 VIS 7/8V7 SLPNO
Conditions at: KOZR (OZARK/CAIRNS AAF, AL, US) observed 0510 UTC 08 December 2022
Temperature: 16.0°C (61°F)
Dewpoint: 15.0°C (59°F) [RH = 94%]
Pressure (altimeter): 30.27 inches Hg (1025.1 mb)
Winds: calm
Visibility: 0.88 miles (1.42 km)
Ceiling: at least 12,000 feet AGL
Clouds: sky clear below 12,000 feet AGL
Weather: BR  (mist)

METAR text: KOZR 080455Z AUTO 00000KT 10SM CLR 16/15 A3027 RMK AO2 SLPNO T01560148
Conditions at: KOZR (OZARK/CAIRNS AAF, AL, US) observed 0455 UTC 08 December 2022
Temperature: 15.6°C (60°F)
Dewpoint: 14.8°C (59°F) [RH = 95%]
Pressure (altimeter): 30.27 inches Hg (1025.1 mb)
Winds: calm
Visibility: 10 or more miles (16+ km)
Ceiling: at least 12,000 feet AGL
Clouds: sky clear below 12,000 feet AGL
Weather: automated observation with no human augmentation;
there may or may not be significant weather present at this time

Forecast for: KOZR (OZARK/CAIRNS AAF, AL, US)
Text: TAF KOZR 080255Z 0802/0908 18005KT 9999 FEW025 FEW220 QNH3020INS
Forecast period: 0200 to 0400 UTC 08 December 2022
Forecast type: FROM: standard forecast or significant change
Winds: from the S (180 degrees) at 6 MPH (5 knots; 2.6 m/s)
Visibility: 6 or more miles (10+ km)
Ceiling: at least 12,000 feet AGL
Clouds: few clouds at 2500 feet AGL
few clouds at 22000 feet AGL
Weather: no significant weather forecast for this period
Text: BECMG 0804/0805 VRB04KT 8000 BR BKN008 QNH3024INS
Forecast period: 0400 to 0600 UTC 08 December 2022
Forecast type: BECOMING: Conditions expected to become as follows by 0500 UTC 08 December 2022
Winds: variable direction winds at 5 MPH (4 knots; 2.1 m/s)
Visibility: 5 miles (8 km)
Ceiling: 800 feet AGL
Clouds: broken clouds at 800 feet AGL
Weather: BR  (mist)
Text: BECMG 0806/0807 VRB04KT 1600 BR OVC003 QNH3024INS
Forecast period: 0600 to 0900 UTC 08 December 2022
Forecast type: BECOMING: Conditions expected to become as follows by 0700 UTC 08 December 2022
Winds: variable direction winds at 5 MPH (4 knots; 2.1 m/s)
Visibility: 0.99 miles (1.59 km)
Ceiling: 300 feet AGL
Clouds: overcast cloud deck at 300 feet AGL
Weather: BR  (mist)
Text: BECMG 0809/0810 VRB04KT 0800 FG OVC002 QNH3022INS
Forecast period: 0900 to 1400 UTC 08 December 2022
Forecast type: BECOMING: Conditions expected to become as follows by 1000 UTC 08 December 2022
Winds: variable direction winds at 5 MPH (4 knots; 2.1 m/s)
Visibility: 0.50 miles (0.80 km)
Ceiling: 200 feet AGL
Clouds: overcast cloud deck at 200 feet AGL
Weather: FG  (fog)
Text: BECMG 0814/0815 25006KT 9999 NSW BKN003 QNH3024INS
Forecast period: 1400 to 1500 UTC 08 December 2022
Forecast type: BECOMING: Conditions expected to become as follows by 1500 UTC 08 December 2022
Winds: from the WSW (250 degrees) at 7 MPH (6 knots; 3.1 m/s)
Visibility: 6 or more miles (10+ km)
Ceiling: 300 feet AGL
Clouds: broken clouds at 300 feet AGL
Weather: NSW  (no significant weather)
Text: BECMG 0815/0816 26007KT 9999 BKN007 QNH3026INS
Forecast period: 1500 to 1600 UTC 08 December 2022
Forecast type: BECOMING: Conditions expected to become as follows by 1600 UTC 08 December 2022
Winds: from the W (260 degrees) at 8 MPH (7 knots; 3.6 m/s)
Visibility: 6 or more miles (10+ km)
Ceiling: 700 feet AGL
Clouds: broken clouds at 700 feet AGL
Weather: NSW  (no significant weather)
Text: BECMG 0816/0817 26007KT 9999 SCT010 BKN020 QNH3023INS
Forecast period: 1600 to 1800 UTC 08 December 2022
Forecast type: BECOMING: Conditions expected to become as follows by 1700 UTC 08 December 2022
Winds: from the W (260 degrees) at 8 MPH (7 knots; 3.6 m/s)
Visibility: 6 or more miles (10+ km)
Ceiling: 2000 feet AGL
Clouds: scattered clouds at 1000 feet AGL
broken clouds at 2000 feet AGL
Weather: NSW  (no significant weather)
Text: BECMG 0818/0819 26007KT 9999 SCT030 QNH3018INS TX24/0820Z TN16/0810Z
Forecast period: 1800 UTC 08 December 2022 to 0800 UTC 09 December 2022
Forecast type: BECOMING: Conditions expected to become as follows by 1900 UTC 08 December 2022
Winds: from the W (260 degrees) at 8 MPH (7 knots; 3.6 m/s)
Visibility: 6 or more miles (10+ km)
Ceiling: at least 12,000 feet AGL
Clouds: scattered clouds at 3000 feet AGL
Weather: NSW  (no significant weather)

 AIRPORT MAP

 RUNWAY INFORMATION
Runway 06 Runway length 4500 ft Runway width 150 ft
Runway elevation 296 ft Runway displaced threshold 0 ft Runway heading 61
Runway 24 Runway length 4500 ft Runway width 150 ft
Runway elevation 295 ft Runway displaced threshold 0 ft Runway heading 241
Runway 14 Runway length 4500 ft Runway width 150 ft
Runway elevation 0 ft Runway displaced threshold 0 ft Runway heading 134
Runway 32 Runway length 4500 ft Runway width 150 ft
Runway elevation 0 ft Runway displaced threshold 0 ft Runway heading 314
Runway 18 Runway length 5000 ft Runway width 150 ft
Runway elevation 301 ft Runway displaced threshold 0 ft Runway heading 181
Runway 36 Runway length 5000 ft Runway width 150 ft
Runway elevation 296 ft Runway displaced threshold 0 ft Runway heading 1

 AIRPORT FREQUENCIES
Type A/D Name APP/DEP Frequency 121.1 MHZ
Type ATIS Name ATIS Frequency 111.2 MHZ
Type CLD Name CLNC DEL Frequency 118.075 MHZ
Type CTAF Name CTAF Frequency 135.2 MHZ
Type GND Name GND Frequency 121.9 MHZ
Type OPS Name OPS Frequency 126.2 MHZ
Type PMSV Name PMSV METRO Frequency 134.1 MHZ
Type TWR Name TWR Frequency 135.2 MHZ

 AIRPORT NEAR NAVIGATION AIDS
Type NDB Name Boll Weevil Frequency 352 KHZ
Type NDB Name Ruckr Frequency 212 KHZ
Type VOR-DME Name Cairns Frequency 111200 KHZ